Time;durP1;ratioP1;P1;durP2;ratioP2;P2;SDS_P1;SDS_P2;PMS_P1;PMS_P2;Temp;Humidity;BMP_temperature;BMP_pressure;BME280_temperature;BME280_humidity;BME280_pressure;Samples;Min_cycle;Max_cycle;Signal;HPM_P1;HPM_P2
2023/07/19 00:00:38;;;;;;;4.87;4.37;;;;;;;20.30;100.00;99991.44;5022294;28;20239;-76
2023/07/19 00:03:03;;;;;;;4.40;4.00;;;;;;;20.27;100.00;99997.72;5016383;28;20201;-76
2023/07/19 00:05:29;;;;;;;4.00;3.70;;;;;;;20.25;100.00;100000.44;5013902;28;20272;-76
2023/07/19 00:07:55;;;;;;;4.40;4.00;;;;;;;20.23;100.00;100002.28;5014775;28;20203;-76
2023/07/19 00:10:20;;;;;;;4.63;4.23;;;;;;;20.20;100.00;99986.69;5017626;28;20204;-76
2023/07/19 00:12:45;;;;;;;3.80;3.50;;;;;;;20.17;100.00;99991.25;5015726;28;20863;-76
2023/07/19 00:15:11;;;;;;;4.63;4.33;;;;;;;20.16;100.00;100000.91;5014613;28;20566;-76
2023/07/19 00:17:36;;;;;;;4.30;3.90;;;;;;;20.17;100.00;99991.25;5014821;28;20216;-77
2023/07/19 00:20:03;;;;;;;4.00;3.60;;;;;;;20.17;100.00;99994.72;5013406;28;20190;-76
2023/07/19 00:22:28;;;;;;;4.10;3.70;;;;;;;20.18;100.00;100006.09;5016867;28;20278;-76
2023/07/19 00:24:53;;;;;;;4.57;4.03;;;;;;;20.19;100.00;99999.91;5016319;28;20332;-76
2023/07/19 00:27:18;;;;;;;4.93;3.77;;;;;;;20.20;100.00;100004.19;5014899;28;20212;-75
2023/07/19 00:29:44;;;;;;;4.63;4.23;;;;;;;20.21;100.00;100011.16;5020025;28;22756;-75
2023/07/19 00:32:09;;;;;;;4.60;4.20;;;;;;;20.22;100.00;99999.72;5014018;28;20702;-76
2023/07/19 00:34:34;;;;;;;4.57;4.17;;;;;;;20.22;100.00;100008.47;5019127;28;20669;-76
2023/07/19 00:37:00;;;;;;;4.30;4.00;;;;;;;20.23;100.00;100002.28;5014939;28;20233;-75
2023/07/19 00:39:25;;;;;;;3.80;3.50;;;;;;;20.22;100.00;100002.34;5010899;28;20322;-76
2023/07/19 00:41:51;;;;;;;4.63;4.23;;;;;;;20.22;100.00;99999.72;5018443;28;20190;-76
2023/07/19 00:44:16;;;;;;;4.30;3.87;;;;;;;20.19;100.00;100008.63;5019562;28;20809;-76
2023/07/19 00:46:42;;;;;;;4.23;3.87;;;;;;;20.17;100.00;100004.41;5014992;28;20720;-77
2023/07/19 00:49:09;;;;;;;4.73;4.33;;;;;;;20.14;100.00;99997.50;5013866;28;20191;-75
2023/07/19 00:51:34;;;;;;;4.93;4.53;;;;;;;20.10;100.00;99993.38;5015952;28;20624;-77
2023/07/19 00:54:00;;;;;;;4.80;4.40;;;;;;;20.11;100.00;100000.31;5014762;28;20196;-76
2023/07/19 00:56:27;;;;;;;4.87;4.40;;;;;;;20.09;100.00;100005.63;5011804;28;20273;-76
2023/07/19 00:58:53;;;;;;;4.67;4.27;;;;;;;20.09;100.00;100008.25;5018544;28;20235;-76
2023/07/19 01:01:20;;;;;;;4.60;4.20;;;;;;;20.09;100.00;100008.25;5010350;28;20562;-77
2023/07/19 01:03:45;;;;;;;4.67;4.27;;;;;;;20.11;100.00;99997.69;5009509;28;20202;-76
2023/07/19 01:06:11;;;;;;;4.60;4.20;;;;;;;20.14;100.00;100015.06;5013919;28;20198;-76
2023/07/19 01:08:36;;;;;;;4.63;4.23;;;;;;;20.16;100.00;100010.56;5010353;28;20902;-76
2023/07/19 01:11:02;;;;;;;10.00;4.40;;;;;;;20.17;100.00;100014.91;5018756;28;20210;-76
2023/07/19 01:13:27;;;;;;;5.23;4.77;;;;;;;20.16;100.00;100013.22;5018122;28;20195;-77
2023/07/19 01:15:53;;;;;;;4.50;4.10;;;;;;;20.17;100.00;100007.03;5020971;28;20649;-76
2023/07/19 01:18:19;;;;;;;4.20;3.90;;;;;;;20.16;100.00;99997.44;5011653;28;20219;-76
2023/07/19 01:20:44;;;;;;;4.37;4.00;;;;;;;20.16;100.00;100002.69;5015203;28;20677;-76
2023/07/19 01:23:10;;;;;;;5.00;4.60;;;;;;;20.15;100.00;100011.50;5013822;28;20212;-76
2023/07/19 01:25:35;;;;;;;5.43;4.47;;;;;;;20.13;100.00;100008.09;5021987;28;20190;-76
2023/07/19 01:28:00;;;;;;;5.10;4.60;;;;;;;20.11;100.00;100000.31;5018579;28;20742;-76
2023/07/19 01:30:26;;;;;;;4.93;4.43;;;;;;;20.10;100.00;99998.63;5005704;28;20656;-76
2023/07/19 01:32:51;;;;;;;6.07;4.70;;;;;;;20.08;100.00;99998.69;5017014;28;20392;-77
2023/07/19 01:35:17;;;;;;;5.67;5.17;;;;;;;20.05;100.00;99996.22;5016652;28;20203;-76
2023/07/19 01:37:42;;;;;;;4.30;4.00;;;;;;;20.02;100.00;99993.78;5018582;28;20214;-76
2023/07/19 01:40:11;;;;;;;4.73;4.33;;;;;;;19.99;100.00;99999.19;5018995;28;20213;-76
2023/07/19 01:42:36;;;;;;;5.67;4.50;;;;;;;19.98;100.00;100000.13;5018966;28;20205;-75
2023/07/19 01:45:02;;;;;;;5.70;4.47;;;;;;;19.97;100.00;99998.41;5017246;28;20192;-76
2023/07/19 01:47:28;;;;;;;5.37;4.87;;;;;;;19.95;100.00;100002.91;5021470;28;20313;-75
2023/07/19 01:49:53;;;;;;;5.87;4.67;;;;;;;19.92;100.00;99992.56;5015701;28;20272;-76
2023/07/19 01:52:19;;;;;;;5.03;4.63;;;;;;;19.86;100.00;99998.09;5015053;28;20233;-77
2023/07/19 01:54:44;;;;;;;5.73;4.90;;;;;;;19.81;100.00;99990.47;5017314;28;20249;-75
2023/07/19 01:57:10;;;;;;;5.53;4.53;;;;;;;19.77;100.00;100004.69;5017069;28;20698;-75
2023/07/19 01:59:36;;;;;;;5.27;4.87;;;;;;;19.73;100.00;100000.50;5020693;28;20186;-76
2023/07/19 02:02:01;;;;;;;5.87;5.27;;;;;;;19.69;100.00;99996.34;5018694;28;20189;-76
2023/07/19 02:04:27;;;;;;;4.70;4.30;;;;;;;19.66;100.00;99997.34;5021712;28;20198;-75
2023/07/19 02:06:53;;;;;;;5.57;5.07;;;;;;;19.62;100.00;99994.06;5020246;28;20215;-76
2023/07/19 02:09:18;;;;;;;5.30;4.80;;;;;;;19.58;100.00;99989.88;5019925;28;20190;-75
2023/07/19 02:11:44;;;;;;;5.87;5.20;;;;;;;19.57;100.00;99992.59;5017810;28;20577;-75
2023/07/19 02:14:09;;;;;;;4.83;4.43;;;;;;;19.55;100.00;99991.81;5015640;28;20221;-76
2023/07/19 02:16:34;;;;;;;5.57;5.07;;;;;;;19.54;100.00;99983.09;5016287;28;20250;-75
2023/07/19 02:19:03;;;;;;;5.27;4.77;;;;;;;19.54;100.00;99984.88;5016628;28;20966;-75
2023/07/19 02:21:28;;;;;;;5.90;5.40;;;;;;;19.54;100.00;99979.63;5018341;28;20282;-75
2023/07/19 02:23:54;;;;;;;8.10;5.60;;;;;;;19.54;100.00;99977.00;5015597;28;20281;-76
2023/07/19 02:26:19;;;;;;;6.70;5.17;;;;;;;19.53;100.00;99978.75;5022915;28;20639;-76
2023/07/19 02:28:44;;;;;;;7.30;5.03;;;;;;;19.54;100.00;99971.75;5020791;28;20198;-76
2023/07/19 02:31:10;;;;;;;7.23;5.40;;;;;;;19.53;100.00;99975.28;5023653;28;20805;-76
2023/07/19 02:33:35;;;;;;;7.33;4.97;;;;;;;19.50;100.00;99974.53;5024799;28;20200;-76
2023/07/19 02:36:00;;;;;;;5.33;4.83;;;;;;;19.48;100.00;99973.75;5024282;28;20203;-76
2023/07/19 02:38:26;;;;;;;5.33;4.93;;;;;;;19.48;100.00;99975.53;5017453;28;20255;-77
2023/07/19 02:40:58;;;;;;;4.80;4.40;;;;;;;19.46;100.00;99974.75;5016259;28;20768;-76
2023/07/19 02:43:23;;;;;;;5.73;5.10;;;;;;;19.44;100.00;99971.38;5009482;28;20198;-76
2023/07/19 02:45:48;;;;;;;5.37;4.87;;;;;;;19.42;100.00;99966.22;5015600;28;20876;-76
2023/07/19 02:48:14;;;;;;;5.43;4.83;;;;;;;19.42;100.00;99978.47;5019937;28;20220;-77
2023/07/19 02:50:44;;;;;;;5.03;4.63;;;;;;;19.41;100.00;99987.25;5019829;28;20278;-76
2023/07/19 02:53:10;;;;;;;4.97;4.60;;;;;;;19.39;100.00;99984.72;5022481;28;20263;-76
2023/07/19 02:55:35;;;;;;;5.03;4.53;;;;;;;19.39;100.00;99989.09;5017086;28;20652;-76
2023/07/19 02:58:00;;;;;;;4.63;4.33;;;;;;;19.39;100.00;99994.34;5011822;28;20219;-77
2023/07/19 03:00:26;;;;;;;4.53;4.13;;;;;;;19.39;100.00;99989.97;5013659;28;20189;-76
2023/07/19 03:02:53;;;;;;;5.00;4.50;;;;;;;19.39;100.00;99996.97;5014878;28;20565;-76
2023/07/19 03:05:20;;;;;;;4.40;4.00;;;;;;;19.36;100.00;99997.16;5016041;28;20216;-77
2023/07/19 03:07:45;;;;;;;5.20;4.63;;;;;;;19.33;100.00;100000.78;5025667;28;20682;-76
2023/07/19 03:10:10;;;;;;;4.40;4.00;;;;;;;19.30;100.00;100000.91;5017270;28;20198;-76
2023/07/19 03:12:35;;;;;;;4.83;4.43;;;;;;;19.28;100.00;100006.25;5011966;28;20220;-77
2023/07/19 03:15:01;;;;;;;4.80;4.30;;;;;;;19.25;100.00;100006.41;5016383;28;20199;-77
2023/07/19 03:17:26;;;;;;;4.20;3.90;;;;;;;19.25;100.00;100009.03;5016013;28;20898;-76
2023/07/19 03:19:52;;;;;;;4.20;3.80;;;;;;;19.23;100.00;100013.50;5015360;28;20275;-76
2023/07/19 03:22:17;;;;;;;4.10;3.80;;;;;;;19.22;100.00;100016.19;5018835;28;20185;-76
2023/07/19 03:24:42;;;;;;;4.47;3.90;;;;;;;19.19;100.00;100010.19;5022952;28;20197;-76
2023/07/19 03:27:07;;;;;;;4.37;3.80;;;;;;;19.18;100.00;100018.13;5025261;28;20204;-76
2023/07/19 03:29:33;;;;;;;4.30;4.00;;;;;;;19.16;100.00;100019.97;5014189;28;20188;-77
2023/07/19 03:31:58;;;;;;;4.77;4.27;;;;;;;19.14;100.00;100027.06;5006955;28;20215;-76
2023/07/19 03:34:23;;;;;;;4.50;4.10;;;;;;;19.12;100.00;100023.66;5016237;28;20196;-76
2023/07/19 03:36:49;;;;;;;4.27;3.97;;;;;;;19.11;100.00;100024.59;5012681;28;20217;-76
2023/07/19 03:39:15;;;;;;;4.07;3.67;;;;;;;19.10;100.00;100030.75;5013455;28;20681;-76
2023/07/19 03:41:40;;;;;;;4.20;3.83;;;;;;;19.09;100.00;100032.53;5007296;28;20230;-76
2023/07/19 03:44:06;;;;;;;4.30;3.90;;;;;;;19.09;100.00;100035.16;5020802;28;20321;-76
2023/07/19 03:46:31;;;;;;;4.27;3.90;;;;;;;19.09;100.00;100035.16;5015383;28;20220;-76
2023/07/19 03:48:56;;;;;;;4.57;4.17;;;;;;;19.07;100.00;100030.91;5011693;28;20271;-75
2023/07/19 03:51:21;;;;;;;4.70;4.30;;;;;;;19.07;100.00;100033.53;5012465;28;20706;-76
2023/07/19 03:53:47;;;;;;;4.40;4.00;;;;;;;19.08;100.00;100045.72;5022236;28;20687;-76
2023/07/19 03:56:12;;;;;;;5.33;4.60;;;;;;;19.07;100.00;100037.00;5016013;28;20213;-78
2023/07/19 03:58:39;;;;;;;5.23;4.30;;;;;;;19.09;100.00;100040.41;5017582;28;20216;-76
2023/07/19 04:01:04;;;;;;;5.13;4.63;;;;;;;19.10;100.00;100047.38;5007096;28;20234;-76
2023/07/19 04:03:30;;;;;;;4.97;4.53;;;;;;;19.11;100.00;100038.56;5018259;28;20199;-76
2023/07/19 04:05:57;;;;;;;4.53;4.20;;;;;;;19.14;100.00;100043.66;5018368;28;20736;-77
2023/07/19 04:08:22;;;;;;;5.17;4.67;;;;;;;19.17;100.00;100037.41;5012556;28;20216;-76
2023/07/19 04:10:47;;;;;;;4.77;4.27;;;;;;;19.19;100.00;100043.44;5012703;28;20193;-76
2023/07/19 04:13:13;;;;;;;5.53;4.17;;;;;;;19.20;100.00;100042.53;5015831;28;20191;-76
2023/07/19 04:15:39;;;;;;;4.77;4.30;;;;;;;19.21;100.00;100036.31;5020923;28;20182;-76
2023/07/19 04:18:05;;;;;;;5.33;4.57;;;;;;;19.24;100.00;100036.19;5018141;28;20242;-77
2023/07/19 04:20:30;;;;;;;5.30;4.50;;;;;;;19.27;100.00;100048.31;5013553;28;20190;-77
2023/07/19 04:22:56;;;;;;;8.03;4.87;;;;;;;19.30;100.00;100029.78;5014886;28;20189;-76
2023/07/19 04:25:24;;;;;;;7.00;4.83;;;;;;;19.34;100.00;100036.56;5018919;28;20287;-77
2023/07/19 04:27:50;;;;;;;4.90;4.43;;;;;;;19.38;100.00;100051.25;5015995;28;20220;-76
2023/07/19 04:30:16;;;;;;;5.40;4.90;;;;;;;19.43;100.00;100046.63;5017056;28;20193;-76
2023/07/19 04:32:41;;;;;;;6.20;5.60;;;;;;;19.48;100.00;100049.84;5016867;28;20221;-77
2023/07/19 04:35:07;;;;;;;5.33;4.80;;;;;;;19.53;100.00;100043.53;5006234;28;20562;-76
2023/07/19 04:37:32;;;;;;;5.47;4.97;;;;;;;19.56;100.00;100040.75;5016332;28;20231;-77
2023/07/19 04:39:58;;;;;;;5.30;4.80;;;;;;;19.58;100.00;100044.16;5012054;28;20276;-76
2023/07/19 04:42:24;;;;;;;5.60;4.93;;;;;;;19.62;100.00;100043.06;5025899;28;20333;-76
2023/07/19 04:44:49;;;;;;;5.03;4.37;;;;;;;19.65;100.00;100046.41;5016657;28;20201;-76
2023/07/19 04:47:14;;;;;;;5.93;4.97;;;;;;;19.72;100.00;100049.56;5016719;28;20215;-76
2023/07/19 04:49:40;;;;;;;5.70;5.20;;;;;;;19.86;100.00;100055.88;5011870;28;20193;-76
2023/07/19 04:52:05;;;;;;;5.10;4.60;;;;;;;20.13;100.00;100047.50;5016172;28;20213;-77
2023/07/19 04:54:31;;;;;;;4.97;4.43;;;;;;;20.32;100.00;100042.13;5019314;28;20266;-78
2023/07/19 04:56:56;;;;;;;6.37;4.73;;;;;;;20.51;100.00;100049.84;5019486;28;20219;-77
2023/07/19 04:59:22;;;;;;;6.40;4.90;;;;;;;20.69;100.00;100050.66;5019590;28;20218;-76
2023/07/19 05:01:48;;;;;;;5.57;4.10;;;;;;;20.89;100.00;100053.97;5017784;28;20674;-77
2023/07/19 05:04:13;;;;;;;5.77;4.53;;;;;;;21.08;99.66;100051.16;5015973;28;20195;-77
2023/07/19 05:06:38;;;;;;;8.77;4.77;;;;;;;21.13;99.48;100052.59;5021321;28;20208;-78
2023/07/19 05:09:04;;;;;;;5.10;4.60;;;;;;;21.24;99.28;100046.72;5020214;28;20279;-76
2023/07/19 05:11:30;;;;;;;5.03;4.53;;;;;;;21.39;98.48;100044.13;5020573;28;20294;-76
2023/07/19 05:13:55;;;;;;;6.73;5.23;;;;;;;21.51;98.48;100047.81;5024462;28;20195;-76
2023/07/19 05:16:21;;;;;;;7.50;4.90;;;;;;;21.74;97.83;100049.13;5014521;28;20274;-77
2023/07/19 05:18:46;;;;;;;6.97;4.87;;;;;;;22.12;97.84;100042.47;5021994;28;20192;-77
2023/07/19 05:21:12;;;;;;;5.07;4.57;;;;;;;22.53;96.02;100058.41;5019271;28;20203;-76
2023/07/19 05:23:37;;;;;;;6.10;4.20;;;;;;;22.99;94.31;100046.69;5018106;28;20187;-77
2023/07/19 05:26:03;;;;;;;4.87;4.07;;;;;;;23.67;93.01;100046.66;5019702;28;20192;-77
2023/07/19 05:28:28;;;;;;;4.43;4.10;;;;;;;24.18;90.49;100050.28;5014774;28;20207;-77
2023/07/19 05:30:54;;;;;;;4.37;3.97;;;;;;;24.81;88.77;100053.78;5023024;28;20190;-76
2023/07/19 05:33:19;;;;;;;6.37;4.70;;;;;;;25.23;86.43;100057.84;5010546;28;20191;-77
2023/07/19 05:35:47;;;;;;;5.20;4.70;;;;;;;26.00;83.61;100053.81;5012579;28;20723;-77
2023/07/19 05:38:12;;;;;;;5.20;4.27;;;;;;;26.55;81.94;100053.97;5020558;28;20230;-77
2023/07/19 05:40:38;;;;;;;4.53;4.10;;;;;;;27.21;79.07;100057.53;5015990;28;21452;-78
2023/07/19 05:43:03;;;;;;;4.97;4.47;;;;;;;27.54;78.55;100058.38;5018895;28;20191;-77
2023/07/19 05:45:28;;;;;;;4.65;4.13;;;;;;;27.57;77.11;100060.78;5027118;28;20194;-76
2023/07/19 05:47:54;;;;;;;5.75;4.30;;;;;;;28.04;76.38;100057.69;5018702;28;20215;-77
2023/07/19 05:50:19;;;;;;;4.18;3.78;;;;;;;28.18;75.80;100061.84;5020526;28;20188;-77
2023/07/19 05:52:44;;;;;;;5.22;4.05;;;;;;;28.51;75.20;100061.66;5017960;28;20212;-77
2023/07/19 05:55:10;;;;;;;4.80;4.25;;;;;;;28.74;74.09;100057.81;5007984;28;20180;-75
2023/07/19 05:57:35;;;;;;;4.95;4.50;;;;;;;28.67;73.71;100059.31;5017284;28;20413;-77
2023/07/19 06:00:13;;;;;;;4.18;3.88;;;;;;;28.96;73.46;100063.88;5026494;28;20188;-76
2023/07/19 06:02:39;;;;;;;5.47;4.20;;;;;;;28.87;72.70;100068.22;5019758;28;20183;-77
2023/07/19 06:05:05;;;;;;;5.03;4.47;;;;;;;28.84;72.57;100062.31;5011032;28;20185;-76
2023/07/19 06:07:31;;;;;;;4.03;3.65;;;;;;;29.17;72.51;100062.91;5015245;28;20696;-78
2023/07/19 06:09:56;;;;;;;6.90;4.68;;;;;;;28.81;72.72;100073.25;5016136;28;20192;-76
2023/07/19 06:12:21;;;;;;;7.40;4.38;;;;;;;28.66;72.67;100076.28;5017688;28;20555;-78
2023/07/19 06:14:47;;;;;;;6.72;4.40;;;;;;;28.72;73.01;100070.41;5018621;28;20317;-77
2023/07/19 06:17:12;;;;;;;5.70;4.07;;;;;;;28.98;72.59;100075.25;5019024;28;20220;-77
2023/07/19 06:19:37;;;;;;;5.05;4.05;;;;;;;29.53;71.61;100073.03;5020404;28;20194;-76
2023/07/19 06:22:03;;;;;;;7.18;4.30;;;;;;;29.27;72.04;100070.91;5019371;28;20648;-77
2023/07/19 06:24:28;;;;;;;4.22;3.88;;;;;;;29.32;72.34;100069.50;5016294;28;20271;-77
2023/07/19 06:26:54;;;;;;;6.43;3.75;;;;;;;29.13;72.37;100075.66;5015011;28;20207;-77
2023/07/19 06:29:21;;;;;;;5.20;4.70;;;;;;;28.81;72.84;100074.09;5018540;28;20201;-77
2023/07/19 06:31:46;;;;;;;4.57;4.18;;;;;;;29.32;72.04;100071.31;5014946;28;20213;-76
2023/07/19 06:34:11;;;;;;;5.70;4.53;;;;;;;29.58;71.22;100078.75;5015043;28;20871;-76
2023/07/19 06:36:37;;;;;;;3.97;3.67;;;;;;;29.99;70.70;100084.75;4985684;28;1062778;-78
2023/07/19 06:39:03;;;;;;;6.13;4.35;;;;;;;30.14;70.23;100079.75;5016139;28;20794;-77
2023/07/19 06:41:28;;;;;;;5.78;4.90;;;;;;;30.03;70.54;100079.94;5012898;28;20188;-76
2023/07/19 06:43:54;;;;;;;6.22;4.70;;;;;;;29.71;70.84;100081.13;5013186;28;20187;-78
2023/07/19 06:46:21;;;;;;;4.55;4.15;;;;;;;29.57;70.70;100087.75;5015995;28;20195;-77
2023/07/19 06:48:46;;;;;;;6.32;4.43;;;;;;;29.51;71.76;100078.47;5024023;28;20211;-76
2023/07/19 06:51:12;;;;;;;5.03;3.97;;;;;;;29.26;71.39;100067.38;5020601;28;20700;-78
2023/07/19 06:53:37;;;;;;;6.00;5.60;;;;;;;29.54;71.42;100077.38;5018416;28;20805;-77
2023/07/19 06:56:03;;;;;;;7.35;6.60;;;;;;;29.63;71.05;100077.34;5015139;28;20270;-76
2023/07/19 06:58:28;;;;;;;9.90;5.15;;;;;;;29.32;71.54;100089.97;5021216;28;20269;-76
2023/07/19 07:00:55;;;;;;;5.03;4.57;;;;;;;29.52;71.10;100082.81;5018352;28;20267;-77
2023/07/19 07:03:21;;;;;;;5.80;4.85;;;;;;;29.33;71.84;100081.00;5022127;28;20211;-76
2023/07/19 07:05:47;;;;;;;8.82;4.80;;;;;;;29.41;71.31;100085.66;5026986;28;20305;-76
2023/07/19 07:08:12;;;;;;;11.45;4.78;;;;;;;29.34;70.34;100080.00;5019750;28;20756;-78
2023/07/19 07:10:40;;;;;;;10.85;8.35;;;;;;;29.18;70.15;100078.75;5039170;28;20190;-77
2023/07/19 07:13:06;;;;;;;5.13;4.60;;;;;;;29.18;69.88;100084.09;5017323;28;20286;-76
2023/07/19 07:15:31;;;;;;;5.57;4.45;;;;;;;29.31;70.05;100082.94;5028142;28;20275;-77
2023/07/19 07:17:57;;;;;;;6.72;4.20;;;;;;;28.98;69.62;100079.72;5014651;28;20254;-77
2023/07/19 07:20:22;;;;;;;4.57;4.18;;;;;;;28.81;69.98;100066.13;5027248;28;20641;-77
2023/07/19 07:22:47;;;;;;;4.57;4.05;;;;;;;28.95;69.21;100077.34;5014291;28;20245;-77
2023/07/19 07:25:12;;;;;;;4.88;4.30;;;;;;;29.70;68.32;100074.09;5021891;28;20190;-76
2023/07/19 07:27:38;;;;;;;5.18;4.68;;;;;;;30.00;67.27;100075.75;5028878;28;20245;-77
2023/07/19 07:30:04;;;;;;;6.43;5.20;;;;;;;30.23;66.98;100072.69;5026939;28;20184;-77
2023/07/19 07:32:30;;;;;;;6.55;4.63;;;;;;;30.28;66.62;100065.09;5021392;28;20207;-78
2023/07/19 07:34:56;;;;;;;4.53;3.88;;;;;;;30.58;66.04;100063.16;5015877;28;20230;-76
2023/07/19 07:37:21;;;;;;;4.85;4.35;;;;;;;30.85;65.10;100067.63;5017003;28;20220;-77
2023/07/19 07:39:46;;;;;;;4.15;3.75;;;;;;;30.32;65.37;100068.31;5013998;28;20714;-76
2023/07/19 07:42:12;;;;;;;3.83;3.50;;;;;;;31.01;64.14;100061.59;5015907;28;20588;-76
2023/07/19 07:44:37;;;;;;;4.88;4.05;;;;;;;31.40;64.16;100059.59;5010657;28;20188;-77
2023/07/19 07:47:02;;;;;;;4.90;4.40;;;;;;;31.63;63.78;100058.09;5019538;28;20210;-76
2023/07/19 07:49:28;;;;;;;3.95;3.55;;;;;;;31.35;65.26;100054.72;5018602;28;20187;-77
2023/07/19 07:51:53;;;;;;;5.32;4.40;;;;;;;31.08;64.83;100056.47;5017139;28;20884;-76
2023/07/19 07:54:20;;;;;;;5.18;4.15;;;;;;;30.85;64.56;100056.94;5009115;28;20252;-77
2023/07/19 07:56:45;;;;;;;5.18;4.22;;;;;;;30.72;63.54;100059.09;5017632;28;20214;-77
2023/07/19 07:59:10;;;;;;;4.70;3.90;;;;;;;31.36;62.62;100052.88;5022667;28;20197;-77
2023/07/19 08:01:36;;;;;;;7.00;4.10;;;;;;;30.95;62.90;100050.66;5026480;28;20215;-77
2023/07/19 08:04:01;;;;;;;7.25;4.18;;;;;;;30.67;62.54;100054.22;5015849;28;20892;-76
2023/07/19 08:06:26;;;;;;;4.78;3.60;;;;;;;31.22;61.75;100044.44;5016108;28;20237;-78
2023/07/19 08:08:52;;;;;;;5.93;3.35;;;;;;;31.32;62.66;100042.50;5014803;28;20181;-76
2023/07/19 08:11:17;;;;;;;3.67;3.38;;;;;;;31.11;62.29;100042.81;5024009;28;20274;-77
2023/07/19 08:13:44;;;;;;;3.53;2.85;;;;;;;31.48;62.24;100041.78;5014281;28;20573;-76
2023/07/19 08:16:10;;;;;;;5.00;3.70;;;;;;;30.99;62.21;100041.38;5016827;28;20188;-77
2023/07/19 08:18:35;;;;;;;4.68;3.25;;;;;;;31.42;61.86;100041.56;5017176;28;20337;-78
2023/07/19 08:21:02;;;;;;;3.47;2.70;;;;;;;31.68;61.63;100043.41;5016163;28;20685;-77
2023/07/19 08:23:27;;;;;;;3.88;2.92;;;;;;;31.52;62.06;100039.66;5014650;28;20264;-76
2023/07/19 08:25:57;;;;;;;3.58;2.90;;;;;;;31.68;60.80;100035.41;5015680;28;20270;-77
2023/07/19 08:28:26;;;;;;;4.40;3.00;;;;;;;31.15;60.93;100030.00;5016398;28;20199;-77
2023/07/19 08:30:52;;;;;;;3.25;2.90;;;;;;;30.95;61.28;100030.13;5019879;28;20203;-75
2023/07/19 08:33:22;;;;;;;4.28;3.05;;;;;;;30.59;60.89;100024.78;5016636;28;20244;-76
2023/07/19 08:35:47;;;;;;;6.05;2.90;;;;;;;31.12;60.36;100017.75;5014841;28;20227;-76
2023/07/19 08:38:14;;;;;;;3.97;3.00;;;;;;;30.81;61.81;100023.50;5013803;28;20250;-77
2023/07/19 08:40:39;;;;;;;5.10;2.50;;;;;;;30.99;61.52;100014.63;5013860;28;20179;-76
2023/07/19 08:43:08;;;;;;;5.70;2.92;;;;;;;31.28;61.57;100018.91;5013054;28;20191;-77
2023/07/19 08:45:36;;;;;;;4.20;2.67;;;;;;;31.19;60.21;100017.16;5019542;28;20191;-78
2023/07/19 08:48:03;;;;;;;4.65;2.80;;;;;;;31.20;60.47;100013.50;5010881;28;20712;-76
2023/07/19 08:50:28;;;;;;;4.30;2.80;;;;;;;31.05;60.65;100005.16;5009265;28;20187;-76
2023/07/19 08:52:54;;;;;;;2.97;2.60;;;;;;;30.85;60.99;100013.34;5008179;28;20200;-78
2023/07/19 08:55:20;;;;;;;6.05;3.40;;;;;;;30.89;60.77;100006.69;5012574;28;20600;-76
2023/07/19 08:57:46;;;;;;;3.67;3.00;;;;;;;30.71;61.26;100001.34;5014495;28;20217;-78
2023/07/19 09:00:15;;;;;;;3.58;2.65;;;;;;;30.78;59.88;100006.94;5013878;28;20939;-77
2023/07/19 09:02:41;;;;;;;4.40;2.90;;;;;;;30.65;59.21;99991.28;5012516;28;20632;-77
2023/07/19 09:05:06;;;;;;;2.67;2.47;;;;;;;30.49;59.58;99991.91;5009224;28;20219;-76
2023/07/19 09:07:33;;;;;;;3.25;2.55;;;;;;;30.18;60.38;99994.91;5010926;28;20326;-77
2023/07/19 09:09:58;;;;;;;2.45;2.22;;;;;;;30.21;60.23;99989.28;5010776;28;20192;-76
2023/07/19 09:12:24;;;;;;;4.28;2.60;;;;;;;30.18;61.02;99984.22;5008281;28;20208;-76
2023/07/19 09:14:49;;;;;;;2.97;2.38;;;;;;;29.95;60.36;99982.78;5013874;28;20268;-77
2023/07/19 09:17:15;;;;;;;2.80;2.58;;;;;;;29.96;60.22;99980.97;5011565;28;20219;-77
2023/07/19 09:19:44;;;;;;;3.03;2.63;;;;;;;30.05;59.95;99977.41;5016918;28;20191;-79
2023/07/19 09:22:09;;;;;;;3.75;2.55;;;;;;;30.11;60.56;99965.31;5018113;28;20180;-78
2023/07/19 09:24:35;;;;;;;2.67;2.22;;;;;;;30.20;60.42;99969.75;5017843;28;20215;-78
2023/07/19 09:27:00;;;;;;;3.40;2.50;;;;;;;30.20;60.53;99964.44;5014000;28;20584;-78
2023/07/19 09:29:30;;;;;;;3.20;2.45;;;;;;;30.11;61.16;99957.31;5017153;28;20671;-78
2023/07/19 09:32:00;;;;;;;4.90;2.33;;;;;;;30.29;58.10;99959.16;5016435;28;20809;-78
2023/07/19 09:34:29;;;;;;;6.53;2.70;;;;;;;30.40;58.57;99954.47;5016274;28;20180;-75
2023/07/19 09:36:54;;;;;;;4.47;2.85;;;;;;;30.31;59.96;99952.72;5015914;28;20711;-75
2023/07/19 09:39:20;;;;;;;2.97;2.38;;;;;;;30.42;60.06;99946.28;5010849;28;20192;-77
2023/07/19 09:41:46;;;;;;;2.92;2.35;;;;;;;30.50;60.05;99948.19;5017005;28;20654;-77
2023/07/19 09:44:15;;;;;;;2.65;2.05;;;;;;;30.39;60.73;99946.63;5015879;28;20210;-76
2023/07/19 09:46:41;;;;;;;3.90;2.30;;;;;;;30.51;59.41;99952.56;5015493;28;20196;-76
2023/07/19 09:49:06;;;;;;;2.33;2.00;;;;;;;30.48;59.12;99948.38;5012649;28;20289;-77
2023/07/19 09:51:34;;;;;;;4.95;2.55;;;;;;;30.53;59.36;99942.56;5020558;28;20770;-77
2023/07/19 09:54:07;;;;;;;2.72;2.10;;;;;;;30.47;59.04;99953.88;5008323;28;20192;-77
2023/07/19 09:56:33;;;;;;;3.03;2.55;;;;;;;30.42;57.69;99939.13;5018102;28;20188;-76
2023/07/19 09:58:59;;;;;;;3.03;2.22;;;;;;;30.40;59.71;99946.44;5022821;28;20559;-76
2023/07/19 10:01:25;;;;;;;2.42;2.10;;;;;;;30.52;59.19;99943.56;5022591;28;20665;-76
2023/07/19 10:03:50;;;;;;;4.80;2.53;;;;;;;30.33;59.50;99934.69;5016004;28;20188;-75
2023/07/19 10:06:16;;;;;;;2.73;1.87;;;;;;;30.50;59.70;99934.84;5016953;28;20198;-75
2023/07/19 10:08:41;;;;;;;5.28;2.38;;;;;;;30.59;58.84;99943.81;5012607;28;20188;-75
2023/07/19 10:11:06;;;;;;;5.00;2.40;;;;;;;30.63;58.21;99943.34;5026786;28;20187;-77
2023/07/19 10:13:51;;;;;;;6.22;2.60;;;;;;;30.40;58.54;99951.78;5019648;28;20192;-75
2023/07/19 10:16:26;;;;;;;4.00;2.13;;;;;;;30.59;59.03;99944.66;5010878;28;20187;-75
2023/07/19 10:19:14;;;;;;;3.00;2.30;;;;;;;30.51;57.68;99937.38;5024188;28;20187;-75
2023/07/19 10:22:01;;;;;;;3.65;2.38;;;;;;;30.68;56.92;99941.06;5014370;28;20176;-78
2023/07/19 10:24:26;;;;;;;2.72;2.28;;;;;;;30.85;57.15;99930.53;5012213;28;20176;-78
2023/07/19 10:26:51;;;;;;;3.20;2.47;;;;;;;30.92;58.52;99934.28;5023310;28;20233;-77
2023/07/19 10:29:17;;;;;;;2.58;2.38;;;;;;;31.09;57.91;99931.69;5015956;28;20262;-77
2023/07/19 10:31:42;;;;;;;4.32;2.83;;;;;;;31.10;57.76;99926.22;5018207;28;20208;-76
2023/07/19 10:34:08;;;;;;;5.50;2.35;;;;;;;31.09;57.45;99926.34;5019517;28;20231;-76
2023/07/19 10:36:36;;;;;;;2.47;2.25;;;;;;;31.07;57.38;99925.69;5013483;28;20234;-76
2023/07/19 10:39:01;;;;;;;3.55;2.25;;;;;;;30.53;57.19;99922.06;5012616;28;20191;-77
2023/07/19 10:41:27;;;;;;;2.72;2.35;;;;;;;30.73;57.85;99913.88;5019633;28;21405;-78
2023/07/19 10:43:57;;;;;;;2.88;2.38;;;;;;;30.84;58.25;99919.00;5022014;28;20187;-77
2023/07/19 10:46:23;;;;;;;4.35;2.78;;;;;;;31.11;58.15;99924.34;5029452;28;20238;-76
2023/07/19 10:48:50;;;;;;;4.15;2.53;;;;;;;31.37;58.26;99921.72;5025238;28;20188;-77
2023/07/19 10:51:17;;;;;;;4.68;3.08;;;;;;;31.48;57.69;99907.25;5021067;28;20267;-75
2023/07/19 10:53:56;;;;;;;3.50;2.58;;;;;;;31.92;56.66;99901.75;5025204;28;20196;-76
2023/07/19 10:56:22;;;;;;;4.50;2.58;;;;;;;32.16;56.03;99897.47;5014430;28;20245;-78
2023/07/19 10:58:47;;;;;;;5.00;2.97;;;;;;;32.23;56.34;99890.47;5021393;28;20664;-77
2023/07/19 11:01:13;;;;;;;2.63;2.35;;;;;;;32.21;56.65;99899.66;5020857;28;20559;-76
2023/07/19 11:03:39;;;;;;;6.40;3.10;;;;;;;32.09;56.10;99896.47;5024533;28;20188;-78
2023/07/19 11:06:08;;;;;;;4.28;2.83;;;;;;;32.55;55.98;99898.72;5011976;28;20184;-76
2023/07/19 11:08:33;;;;;;;3.35;3.05;;;;;;;32.49;55.97;99891.34;5019643;28;20199;-77
2023/07/19 11:10:58;;;;;;;3.45;3.15;;;;;;;32.52;56.01;99891.84;5014172;28;20581;-77
2023/07/19 11:13:25;;;;;;;9.07;3.20;;;;;;;32.40;56.74;99892.34;5020754;28;20279;-77
2023/07/19 11:15:53;;;;;;;3.80;2.80;;;;;;;31.80;56.79;99891.50;5020905;28;20187;-76
2023/07/19 11:18:30;;;;;;;3.88;2.72;;;;;;;31.74;57.77;99896.53;5024557;28;20233;-77